Time;durP1;ratioP1;P1;durP2;ratioP2;P2;SDS_P1;SDS_P2;PMS_P1;PMS_P2;Temp;Humidity;BMP_temperature;BMP_pressure;BME280_temperature;BME280_humidity;BME280_pressure;Samples;Min_cycle;Max_cycle;Signal;HPM_P1;HPM_P2
2022/04/13 00:02:20;;;;;;;;;;;11.50;99.90;;;;;;5076419;28;19916;-71
2022/04/13 00:04:45;;;;;;;;;;;11.50;99.90;;;;;;5076803;28;19912;-71
2022/04/13 00:07:11;;;;;;;;;;;11.50;99.90;;;;;;5074899;28;19924;-71
2022/04/13 00:09:37;;;;;;;;;;;11.50;99.90;;;;;;5077606;28;19919;-71
2022/04/13 00:12:03;;;;;;;;;;;11.40;99.90;;;;;;5076685;28;19916;-71
2022/04/13 00:14:29;;;;;;;;;;;11.40;99.90;;;;;;5076525;28;19921;-71
2022/04/13 00:16:55;;;;;;;;;;;11.40;99.90;;;;;;5077876;28;19919;-71
2022/04/13 00:19:24;;;;;;;;;;;11.40;99.90;;;;;;5076418;28;19917;-71
2022/04/13 00:21:50;;;;;;;;;;;11.40;99.90;;;;;;5059588;28;20283;-71
2022/04/13 00:24:15;;;;;;;;;;;11.40;99.90;;;;;;5076211;28;19999;-71
2022/04/13 00:26:41;;;;;;;;;;;11.50;99.90;;;;;;5076186;28;19959;-71
2022/04/13 00:29:06;;;;;;;;;;;11.50;99.90;;;;;;5076062;28;19997;-71
2022/04/13 00:31:32;;;;;;;;;;;11.50;99.90;;;;;;5076344;28;19955;-71
2022/04/13 00:33:58;;;;;;;;;;;11.50;99.90;;;;;;5077044;28;19916;-71
2022/04/13 00:36:23;;;;;;;;;;;11.50;99.90;;;;;;5058354;28;19917;-71
2022/04/13 00:38:49;;;;;;;;;;;11.60;99.90;;;;;;5076823;28;20594;-71
2022/04/13 00:41:14;;;;;;;;;;;11.60;99.90;;;;;;5059456;28;20533;-70
2022/04/13 00:43:40;;;;;;;;;;;11.60;99.90;;;;;;5078647;28;20003;-70
2022/04/13 00:46:06;;;;;;;;;;;11.60;99.90;;;;;;5076310;28;20265;-71
2022/04/13 00:48:34;;;;;;;;;;;11.50;99.90;;;;;;5077129;28;19920;-71
2022/04/13 00:51:00;;;;;;;;;;;11.60;99.90;;;;;;5057475;28;19917;-71
2022/04/13 00:53:29;;;;;;;;;;;11.60;99.90;;;;;;5074914;28;20451;-71
2022/04/13 00:55:55;;;;;;;;;;;11.60;99.90;;;;;;5076660;28;19912;-71
2022/04/13 00:58:26;;;;;;;;;;;11.60;99.90;;;;;;5059221;28;19956;-71
2022/04/13 01:00:52;;;;;;;;;;;11.50;99.90;;;;;;5075592;28;19916;-71
2022/04/13 01:03:19;;;;;;;;;;;11.50;99.90;;;;;;5075555;28;19956;-71
2022/04/13 01:05:45;;;;;;;;;;;11.50;99.90;;;;;;5075615;28;20006;-71
2022/04/13 01:08:11;;;;;;;;;;;11.40;99.90;;;;;;5076136;28;19918;-71
2022/04/13 01:10:38;;;;;;;;;;;11.40;99.90;;;;;;5074930;28;19947;-71
2022/04/13 01:13:04;;;;;;;;;;;11.40;99.90;;;;;;5073595;28;19953;-71
2022/04/13 01:15:29;;;;;;;;;;;11.30;99.90;;;;;;5059881;28;19913;-71
2022/04/13 01:17:55;;;;;;;;;;;11.30;99.90;;;;;;5075536;28;19912;-72
2022/04/13 01:20:23;;;;;;;;;;;11.30;99.90;;;;;;5076278;28;20007;-71
2022/04/13 01:22:49;;;;;;;;;;;11.30;99.90;;;;;;5075902;28;19939;-79
2022/04/13 01:25:14;;;;;;;;;;;11.40;99.90;;;;;;5075787;28;20489;-71
2022/04/13 01:27:40;;;;;;;;;;;11.40;99.90;;;;;;5075092;28;20245;-70
2022/04/13 01:30:06;;;;;;;;;;;11.40;99.90;;;;;;5074780;28;20245;-71
2022/04/13 01:32:32;;;;;;;;;;;11.50;99.90;;;;;;5056703;28;19912;-72
2022/04/13 01:34:57;;;;;;;;;;;11.50;99.90;;;;;;5074977;28;19938;-71
2022/04/13 01:37:23;;;;;;;;;;;11.50;99.90;;;;;;5072816;28;19966;-71
2022/04/13 01:39:49;;;;;;;;;;;11.50;99.90;;;;;;5077358;28;20018;-79
2022/04/13 01:42:14;;;;;;;;;;;11.50;99.90;;;;;;5075901;28;20514;-71
2022/04/13 01:44:43;;;;;;;;;;;11.50;99.90;;;;;;5073709;28;19919;-71
2022/04/13 01:47:09;;;;;;;;;;;11.50;99.90;;;;;;5075964;28;19924;-71
2022/04/13 01:49:35;;;;;;;;;;;11.50;99.90;;;;;;5074225;28;20373;-71
2022/04/13 01:52:01;;;;;;;;;;;11.50;99.90;;;;;;5075278;28;19932;-71
2022/04/13 01:54:27;;;;;;;;;;;11.50;99.90;;;;;;5075182;28;20085;-71
2022/04/13 01:56:52;;;;;;;;;;;11.40;99.90;;;;;;5057822;28;21671;-79
2022/04/13 01:59:18;;;;;;;;;;;11.40;99.90;;;;;;5076131;28;19920;-71
2022/04/13 02:01:44;;;;;;;;;;;11.40;99.90;;;;;;5074142;28;20283;-79
2022/04/13 02:04:16;;;;;;;;;;;11.30;99.90;;;;;;5074952;28;20291;-78
2022/04/13 02:06:42;;;;;;;;;;;11.30;99.90;;;;;;5057452;28;19916;-75
2022/04/13 02:09:07;;;;;;;;;;;11.20;99.90;;;;;;5073269;28;19922;-79
2022/04/13 02:11:34;;;;;;;;;;;11.20;99.90;;;;;;5057348;28;19946;-79
2022/04/13 02:13:59;;;;;;;;;;;11.20;99.90;;;;;;5072621;28;19920;-76
2022/04/13 02:16:25;;;;;;;;;;;11.20;99.90;;;;;;5075750;28;19908;-80
2022/04/13 02:18:50;;;;;;;;;;;11.20;99.90;;;;;;5058459;28;19916;-72
2022/04/13 02:21:16;;;;;;;;;;;11.20;99.90;;;;;;5074061;28;19951;-80
2022/04/13 02:23:42;;;;;;;;;;;11.20;99.90;;;;;;5067863;28;20015;-73
2022/04/13 02:26:08;;;;;;;;;;;11.20;99.90;;;;;;5070513;28;19924;-80
2022/04/13 02:28:33;;;;;;;;;;;11.20;99.90;;;;;;5070682;28;20348;-81
2022/04/13 02:30:59;;;;;;;;;;;11.20;99.90;;;;;;5066482;28;19963;-71
2022/04/13 02:33:25;;;;;;;;;;;11.20;99.90;;;;;;5072238;28;19916;-71
2022/04/13 02:35:51;;;;;;;;;;;11.20;99.90;;;;;;5074679;28;19912;-71
2022/04/13 02:38:19;;;;;;;;;;;11.30;99.90;;;;;;5075366;28;19908;-72
2022/04/13 02:40:45;;;;;;;;;;;11.30;99.90;;;;;;5073025;28;19912;-72
2022/04/13 02:43:11;;;;;;;;;;;11.30;99.90;;;;;;5072568;28;19913;-71
2022/04/13 02:45:36;;;;;;;;;;;11.30;99.90;;;;;;5076282;28;19920;-71
2022/04/13 02:48:02;;;;;;;;;;;11.30;99.90;;;;;;5075512;28;19916;-80
2022/04/13 02:50:27;;;;;;;;;;;11.30;99.90;;;;;;5073646;28;19924;-71
2022/04/13 02:52:56;;;;;;;;;;;11.30;99.90;;;;;;5057265;28;19991;-71
2022/04/13 02:55:22;;;;;;;;;;;11.30;99.90;;;;;;5064272;28;20318;-71
2022/04/13 02:57:47;;;;;;;;;;;11.30;99.90;;;;;;5073135;28;19920;-71
2022/04/13 03:00:13;;;;;;;;;;;11.30;99.90;;;;;;5073449;28;19916;-71
2022/04/13 03:02:39;;;;;;;;;;;11.40;99.90;;;;;;5074311;28;19942;-71
2022/04/13 03:05:05;;;;;;;;;;;11.40;99.90;;;;;;5073718;28;19919;-71
2022/04/13 03:07:32;;;;;;;;;;;11.40;99.90;;;;;;5073445;28;20007;-71
2022/04/13 03:09:58;;;;;;;;;;;11.40;99.90;;;;;;5073545;28;19920;-70
2022/04/13 03:12:24;;;;;;;;;;;11.40;99.90;;;;;;5070839;28;19920;-71
2022/04/13 03:14:50;;;;;;;;;;;11.50;99.90;;;;;;5072524;28;19928;-71
2022/04/13 03:17:16;;;;;;;;;;;11.40;99.90;;;;;;5073731;28;19919;-70
2022/04/13 03:19:41;;;;;;;;;;;11.40;99.90;;;;;;5055211;28;19912;-71
2022/04/13 03:22:07;;;;;;;;;;;11.40;99.90;;;;;;5073715;28;19912;-71
2022/04/13 03:24:34;;;;;;;;;;;11.40;99.90;;;;;;5070598;28;20011;-71
2022/04/13 03:27:00;;;;;;;;;;;11.40;99.90;;;;;;5073393;28;19931;-71
2022/04/13 03:29:25;;;;;;;;;;;11.40;99.90;;;;;;5055826;28;19912;-71
2022/04/13 03:31:51;;;;;;;;;;;11.40;99.90;;;;;;5073069;28;20231;-71
2022/04/13 03:34:20;;;;;;;;;;;11.40;99.90;;;;;;5073919;28;19917;-71
2022/04/13 03:36:46;;;;;;;;;;;11.40;99.90;;;;;;5073291;28;19921;-70
2022/04/13 03:39:12;;;;;;;;;;;11.40;99.90;;;;;;5073340;28;19928;-71
2022/04/13 03:41:37;;;;;;;;;;;11.40;99.90;;;;;;5073819;28;19917;-81
2022/04/13 03:44:03;;;;;;;;;;;11.40;99.90;;;;;;5073849;28;19916;-71
2022/04/13 03:46:29;;;;;;;;;;;11.40;99.90;;;;;;5053735;28;20027;-71
2022/04/13 03:48:54;;;;;;;;;;;11.40;99.90;;;;;;5073211;28;19944;-71
2022/04/13 03:51:20;;;;;;;;;;;11.30;99.90;;;;;;5073368;28;20311;-71
2022/04/13 03:53:46;;;;;;;;;;;11.30;99.90;;;;;;5072722;28;20009;-71
2022/04/13 03:56:12;;;;;;;;;;;11.30;99.90;;;;;;5072418;28;20319;-71
2022/04/13 03:58:40;;;;;;;;;;;11.30;99.90;;;;;;5071696;28;19917;-71
2022/04/13 04:01:06;;;;;;;;;;;11.30;99.90;;;;;;5074314;28;19958;-71
2022/04/13 04:03:31;;;;;;;;;;;11.40;99.90;;;;;;5074999;28;19916;-71
2022/04/13 04:05:57;;;;;;;;;;;11.40;99.90;;;;;;5075456;28;19935;-71
2022/04/13 04:08:25;;;;;;;;;;;11.40;99.90;;;;;;5074459;28;19944;-71
2022/04/13 04:10:52;;;;;;;;;;;11.30;99.90;;;;;;5050757;28;20308;-71
2022/04/13 04:13:18;;;;;;;;;;;11.30;99.90;;;;;;5074906;28;19928;-71
2022/04/13 04:15:43;;;;;;;;;;;11.30;99.90;;;;;;5055842;28;19916;-71
2022/04/13 04:18:09;;;;;;;;;;;11.30;99.90;;;;;;5074690;28;19995;-71
2022/04/13 04:20:34;;;;;;;;;;;11.30;99.90;;;;;;5074526;28;19916;-71
2022/04/13 04:23:00;;;;;;;;;;;11.30;99.90;;;;;;5075451;28;19916;-71
2022/04/13 04:25:26;;;;;;;;;;;11.30;99.90;;;;;;5073410;28;20323;-78
2022/04/13 04:27:51;;;;;;;;;;;11.30;99.90;;;;;;5075271;28;20311;-71
2022/04/13 04:30:17;;;;;;;;;;;11.30;99.90;;;;;;5074598;28;19916;-71
2022/04/13 04:32:42;;;;;;;;;;;11.30;99.90;;;;;;5074219;28;20147;-70
2022/04/13 04:35:08;;;;;;;;;;;11.30;99.90;;;;;;5074683;28;19917;-70
2022/04/13 04:37:34;;;;;;;;;;;11.30;99.90;;;;;;5074926;28;19962;-70
2022/04/13 04:39:59;;;;;;;;;;;11.30;99.90;;;;;;5074550;28;19916;-70
2022/04/13 04:42:27;;;;;;;;;;;11.30;99.90;;;;;;5074747;28;19912;-71
2022/04/13 04:44:57;;;;;;;;;;;11.40;99.90;;;;;;5074650;28;19970;-71
2022/04/13 04:47:23;;;;;;;;;;;11.40;99.90;;;;;;5075232;28;19916;-71
2022/04/13 04:49:49;;;;;;;;;;;11.40;99.90;;;;;;5060287;28;20015;-71
2022/04/13 04:52:14;;;;;;;;;;;11.40;99.90;;;;;;5060151;28;20011;-71
2022/04/13 04:54:40;;;;;;;;;;;11.40;99.90;;;;;;5077894;28;20241;-71
2022/04/13 04:57:05;;;;;;;;;;;11.40;99.90;;;;;;5078254;28;20318;-70
2022/04/13 04:59:31;;;;;;;;;;;11.40;99.90;;;;;;5077305;28;20275;-71
2022/04/13 05:01:56;;;;;;;;;;;11.50;99.90;;;;;;5069725;28;20359;-70
2022/04/13 05:04:22;;;;;;;;;;;11.50;99.90;;;;;;5069361;28;20035;-71
2022/04/13 05:06:47;;;;;;;;;;;11.50;99.90;;;;;;5076445;28;19951;-71
2022/04/13 05:09:13;;;;;;;;;;;11.50;99.90;;;;;;5077550;28;19954;-71
2022/04/13 05:11:38;;;;;;;;;;;11.50;99.90;;;;;;5076921;28;19960;-71
2022/04/13 05:14:04;;;;;;;;;;;11.50;99.90;;;;;;5075926;28;19912;-71
2022/04/13 05:16:30;;;;;;;;;;;11.50;99.90;;;;;;5077702;28;19909;-71
2022/04/13 05:18:55;;;;;;;;;;;11.50;99.90;;;;;;5075998;28;19919;-70
2022/04/13 05:21:21;;;;;;;;;;;11.50;99.90;;;;;;5039278;28;20222;-71
2022/04/13 05:23:46;;;;;;;;;;;11.50;99.90;;;;;;5077421;28;19919;-78
2022/04/13 05:26:12;;;;;;;;;;;11.50;99.90;;;;;;5059448;28;19995;-71
2022/04/13 05:28:38;;;;;;;;;;;11.50;99.90;;;;;;5077343;28;19954;-71
2022/04/13 05:31:03;;;;;;;;;;;11.60;99.90;;;;;;5077448;28;19956;-71
2022/04/13 05:33:29;;;;;;;;;;;11.60;99.90;;;;;;5077470;28;19924;-71
2022/04/13 05:35:54;;;;;;;;;;;11.70;99.90;;;;;;5059231;28;19959;-80
2022/04/13 05:38:20;;;;;;;;;;;11.80;99.90;;;;;;5072936;28;20257;-71
2022/04/13 05:40:45;;;;;;;;;;;11.90;99.90;;;;;;5066371;28;20456;-71
2022/04/13 05:43:11;;;;;;;;;;;12.00;99.90;;;;;;5072631;28;19912;-71
2022/04/13 05:45:37;;;;;;;;;;;12.10;99.90;;;;;;5073391;28;19908;-71
2022/04/13 05:48:02;;;;;;;;;;;12.20;99.90;;;;;;5054989;28;19920;-71
2022/04/13 05:50:28;;;;;;;;;;;12.30;99.90;;;;;;5075843;28;20275;-71
2022/04/13 05:52:53;;;;;;;;;;;12.40;99.90;;;;;;5076058;28;19908;-72
2022/04/13 05:55:19;;;;;;;;;;;12.50;99.90;;;;;;5070221;28;19970;-71
2022/04/13 05:57:45;;;;;;;;;;;12.60;99.90;;;;;;5075751;28;19950;-71
2022/04/13 06:00:12;;;;;;;;;;;12.70;99.90;;;;;;5073814;28;19916;-71
2022/04/13 06:02:38;;;;;;;;;;;12.80;99.90;;;;;;5075761;28;20215;-71
2022/04/13 06:05:04;;;;;;;;;;;12.80;99.90;;;;;;5074948;28;19982;-71
2022/04/13 06:07:30;;;;;;;;;;;13.00;99.90;;;;;;5055471;28;19982;-70
2022/04/13 06:09:55;;;;;;;;;;;13.10;99.90;;;;;;5075013;28;19920;-71
2022/04/13 06:12:22;;;;;;;;;;;13.30;99.90;;;;;;5073483;28;19913;-72
2022/04/13 06:14:48;;;;;;;;;;;13.40;99.90;;;;;;5075641;28;19917;-71
2022/04/13 06:17:13;;;;;;;;;;;13.50;99.90;;;;;;5074162;28;19917;-71
2022/04/13 06:19:39;;;;;;;;;;;13.70;99.90;;;;;;5074060;28;19934;-71
2022/04/13 06:22:04;;;;;;;;;;;13.70;99.90;;;;;;5074654;28;19955;-71
2022/04/13 06:24:30;;;;;;;;;;;13.80;99.90;;;;;;5056620;28;19932;-71
2022/04/13 06:26:55;;;;;;;;;;;14.00;99.90;;;;;;5075489;28;19916;-71
2022/04/13 06:29:21;;;;;;;;;;;14.00;99.90;;;;;;5056148;28;19920;-79
2022/04/13 06:31:47;;;;;;;;;;;14.10;99.90;;;;;;5073186;28;19970;-71
2022/04/13 06:34:12;;;;;;;;;;;14.10;99.90;;;;;;5071684;28;20361;-71
2022/04/13 06:36:38;;;;;;;;;;;14.20;99.90;;;;;;5072913;28;19952;-71
2022/04/13 06:39:03;;;;;;;;;;;14.20;99.90;;;;;;5073604;28;19916;-71
2022/04/13 06:41:29;;;;;;;;;;;14.30;99.90;;;;;;5073471;28;19916;-71
2022/04/13 06:43:55;;;;;;;;;;;14.50;99.90;;;;;;5056717;28;19966;-71
2022/04/13 06:46:20;;;;;;;;;;;14.60;99.90;;;;;;5056852;28;19997;-71
2022/04/13 06:48:46;;;;;;;;;;;14.60;99.90;;;;;;5072051;28;19916;-77
2022/04/13 06:51:12;;;;;;;;;;;14.60;99.90;;;;;;5072700;28;19919;-70
2022/04/13 06:53:37;;;;;;;;;;;14.70;99.90;;;;;;5071908;28;19951;-72
2022/04/13 06:56:03;;;;;;;;;;;14.70;99.90;;;;;;5073037;28;19959;-71
2022/04/13 06:58:29;;;;;;;;;;;14.70;99.90;;;;;;5075962;28;19917;-71
2022/04/13 07:00:57;;;;;;;;;;;14.70;99.90;;;;;;5075875;28;20372;-71
2022/04/13 07:03:23;;;;;;;;;;;14.90;99.90;;;;;;5058239;28;20356;-71
2022/04/13 07:05:49;;;;;;;;;;;15.00;99.90;;;;;;5056351;28;19951;-78
2022/04/13 07:08:15;;;;;;;;;;;15.30;99.90;;;;;;5073026;28;19959;-71
2022/04/13 07:10:40;;;;;;;;;;;15.30;99.90;;;;;;5073393;28;19935;-70
2022/04/13 07:13:07;;;;;;;;;;;15.30;99.90;;;;;;5074687;28;19920;-71
2022/04/13 07:15:32;;;;;;;;;;;15.60;99.90;;;;;;5071960;28;19920;-71
2022/04/13 07:17:58;;;;;;;;;;;15.60;99.90;;;;;;5074313;28;19923;-71
2022/04/13 07:20:24;;;;;;;;;;;15.50;99.90;;;;;;5056423;28;19924;-71
2022/04/13 07:22:51;;;;;;;;;;;15.50;99.90;;;;;;5073133;28;20309;-71
2022/04/13 07:25:17;;;;;;;;;;;15.40;99.90;;;;;;5073854;28;20303;-71
2022/04/13 07:27:43;;;;;;;;;;;15.50;99.90;;;;;;5073376;28;19959;-71
2022/04/13 07:30:09;;;;;;;;;;;15.60;99.90;;;;;;5072140;28;20358;-71
2022/04/13 07:32:35;;;;;;;;;;;15.80;99.90;;;;;;5074457;28;20023;-71
2022/04/13 07:35:00;;;;;;;;;;;15.80;99.90;;;;;;5055558;28;19956;-71
2022/04/13 07:37:26;;;;;;;;;;;15.90;99.90;;;;;;5072279;28;19912;-71
2022/04/13 07:39:55;;;;;;;;;;;16.00;99.90;;;;;;5073775;28;20011;-71
2022/04/13 07:42:21;;;;;;;;;;;16.00;99.90;;;;;;5071628;28;20311;-71
2022/04/13 07:44:47;;;;;;;;;;;16.00;99.90;;;;;;5073302;28;19917;-71
2022/04/13 07:47:14;;;;;;;;;;;15.70;99.90;;;;;;5074120;28;19920;-72
2022/04/13 07:49:41;;;;;;;;;;;15.80;99.90;;;;;;5055077;28;20360;-71
2022/04/13 07:52:07;;;;;;;;;;;15.80;99.90;;;;;;5074087;28;20234;-72
2022/04/13 07:54:33;;;;;;;;;;;15.90;99.90;;;;;;5073989;28;19919;-71
2022/04/13 07:56:58;;;;;;;;;;;15.90;99.90;;;;;;5073054;28;20264;-71
2022/04/13 07:59:24;;;;;;;;;;;16.00;99.90;;;;;;5052911;28;19920;-72
2022/04/13 08:01:49;;;;;;;;;;;15.90;99.90;;;;;;5073289;28;20016;-71
2022/04/13 08:04:15;;;;;;;;;;;16.00;99.90;;;;;;5072694;28;20011;-71
2022/04/13 08:06:40;;;;;;;;;;;16.10;99.90;;;;;;5073038;28;19967;-77
2022/04/13 08:09:06;;;;;;;;;;;16.30;99.90;;;;;;5074438;28;20054;-71
2022/04/13 08:11:31;;;;;;;;;;;16.40;99.90;;;;;;5072703;28;19999;-71
2022/04/13 08:13:57;;;;;;;;;;;16.50;99.90;;;;;;5073896;28;19912;-71
2022/04/13 08:16:22;;;;;;;;;;;16.60;99.90;;;;;;5072279;28;20007;-72
2022/04/13 08:18:48;;;;;;;;;;;16.50;99.90;;;;;;5054908;28;20319;-71
2022/04/13 08:21:14;;;;;;;;;;;16.40;99.90;;;;;;5074085;28;20235;-71
2022/04/13 08:23:39;;;;;;;;;;;16.40;99.90;;;;;;5059751;28;19921;-78
2022/04/13 08:26:05;;;;;;;;;;;16.30;99.90;;;;;;5077064;28;19928;-72
2022/04/13 08:28:30;;;;;;;;;;;16.30;99.90;;;;;;5057581;28;19920;-71
2022/04/13 08:30:56;;;;;;;;;;;16.40;99.90;;;;;;5078310;28;20295;-71
2022/04/13 08:33:21;;;;;;;;;;;16.50;99.90;;;;;;5077928;28;19920;-72
2022/04/13 08:35:47;;;;;;;;;;;16.50;99.90;;;;;;5076813;28;19982;-71
2022/04/13 08:38:12;;;;;;;;;;;16.40;99.90;;;;;;5058262;28;20365;-72
2022/04/13 08:40:47;;;;;;;;;;;16.40;99.90;;;;;;5075431;28;20221;-71
2022/04/13 08:43:18;;;;;;;;;;;16.30;99.90;;;;;;5073935;28;19916;-71
2022/04/13 08:45:48;;;;;;;;;;;16.30;99.90;;;;;;5073694;28;19924;-71
2022/04/13 08:48:15;;;;;;;;;;;16.30;99.90;;;;;;5079668;28;19912;-71
2022/04/13 08:50:43;;;;;;;;;;;16.20;99.90;;;;;;5078376;28;19955;-71
2022/04/13 08:53:12;;;;;;;;;;;16.10;99.90;;;;;;5078177;28;19916;-71
2022/04/13 08:55:41;;;;;;;;;;;16.00;99.90;;;;;;5078294;28;19909;-71
2022/04/13 08:58:06;;;;;;;;;;;16.00;99.90;;;;;;5078834;28;19912;-72
2022/04/13 09:00:33;;;;;;;;;;;16.00;99.90;;;;;;5077408;28;19920;-71
2022/04/13 09:02:59;;;;;;;;;;;15.90;99.90;;;;;;5059890;28;19913;-71
2022/04/13 09:05:25;;;;;;;;;;;15.90;99.90;;;;;;5077579;28;20314;-77
2022/04/13 09:08:09;;;;;;;;;;;16.00;99.90;;;;;;5079269;28;19959;-71
2022/04/13 09:10:36;;;;;;;;;;;15.90;99.90;;;;;;5073569;28;19971;-71
2022/04/13 09:13:02;;;;;;;;;;;16.00;99.90;;;;;;5075952;28;19917;-71
2022/04/13 09:15:28;;;;;;;;;;;16.10;99.90;;;;;;5057637;28;19965;-71
2022/04/13 09:17:53;;;;;;;;;;;16.10;99.90;;;;;;5075528;28;19961;-71
2022/04/13 09:20:19;;;;;;;;;;;16.10;99.90;;;;;;5075883;28;19920;-78
2022/04/13 09:22:46;;;;;;;;;;;16.10;99.90;;;;;;5076804;28;19955;-71
2022/04/13 09:25:11;;;;;;;;;;;16.20;99.90;;;;;;5074085;28;19920;-71
2022/04/13 09:27:38;;;;;;;;;;;16.20;99.90;;;;;;5073395;28;19921;-71
2022/04/13 09:30:05;;;;;;;;;;;16.10;99.90;;;;;;5057534;28;19916;-71
2022/04/13 09:32:31;;;;;;;;;;;16.10;99.90;;;;;;5075970;28;20011;-71
2022/04/13 09:34:56;;;;;;;;;;;16.20;99.90;;;;;;5074866;28;19995;-71
2022/04/13 09:37:22;;;;;;;;;;;16.20;99.90;;;;;;5075329;28;19913;-72
2022/04/13 09:39:48;;;;;;;;;;;16.30;99.90;;;;;;5075255;28;20357;-71
2022/04/13 09:42:13;;;;;;;;;;;16.50;99.90;;;;;;5073589;28;19927;-71
2022/04/13 09:44:42;;;;;;;;;;;16.60;99.90;;;;;;5075139;28;20058;-71
2022/04/13 09:47:11;;;;;;;;;;;16.70;99.90;;;;;;5075798;28;19924;-77
2022/04/13 09:49:53;;;;;;;;;;;16.70;99.90;;;;;;5074308;28;19912;-71
2022/04/13 09:52:39;;;;;;;;;;;16.60;99.90;;;;;;5074867;28;19916;-72
2022/04/13 09:55:05;;;;;;;;;;;16.50;99.90;;;;;;5074336;28;19928;-72
2022/04/13 09:57:31;;;;;;;;;;;16.60;99.90;;;;;;5055485;28;19921;-71
2022/04/13 09:59:57;;;;;;;;;;;16.60;99.90;;;;;;5077713;28;19913;-72
2022/04/13 10:02:40;;;;;;;;;;;16.50;99.90;;;;;;5075676;28;19942;-71
2022/04/13 10:05:06;;;;;;;;;;;16.40;99.90;;;;;;5075841;28;20203;-78
2022/04/13 10:07:32;;;;;;;;;;;16.50;99.90;;;;;;5057565;28;20375;-71
2022/04/13 10:09:57;;;;;;;;;;;16.40;99.90;;;;;;5057114;28;19929;-71
2022/04/13 10:12:23;;;;;;;;;;;16.30;99.90;;;;;;5074766;28;20224;-71
2022/04/13 10:14:48;;;;;;;;;;;16.10;99.90;;;;;;5071798;28;20322;-78
2022/04/13 10:17:16;;;;;;;;;;;16.10;99.90;;;;;;5075516;28;20019;-71
2022/04/13 10:19:43;;;;;;;;;;;16.10;99.90;;;;;;5074325;28;19913;-71
2022/04/13 10:22:09;;;;;;;;;;;16.10;99.90;;;;;;5070009;28;19920;-71
2022/04/13 10:24:35;;;;;;;;;;;16.10;99.90;;;;;;5071322;28;20003;-71
2022/04/13 10:27:02;;;;;;;;;;;16.10;99.90;;;;;;5071508;28;19916;-71
2022/04/13 10:29:28;;;;;;;;;;;16.10;99.90;;;;;;5075100;28;20322;-71
2022/04/13 10:32:03;;;;;;;;;;;16.10;99.90;;;;;;5075523;28;19916;-72
2022/04/13 10:34:30;;;;;;;;;;;15.90;99.90;;;;;;5076428;28;19916;-71
2022/04/13 10:36:55;;;;;;;;;;;15.70;99.90;;;;;;5085410;28;20329;-71
2022/04/13 10:39:21;;;;;;;;;;;15.70;99.90;;;;;;5076972;28;19912;-72
2022/04/13 10:41:48;;;;;;;;;;;15.70;99.90;;;;;;5074897;28;19912;-71
2022/04/13 10:44:16;;;;;;;;;;;15.60;99.90;;;;;;5072380;28;19958;-72
2022/04/13 10:46:42;;;;;;;;;;;15.70;99.90;;;;;;5071380;28;19912;-72
2022/04/13 10:49:10;;;;;;;;;;;15.70;99.90;;;;;;5057359;28;19995;-71
2022/04/13 10:51:38;;;;;;;;;;;15.70;99.90;;;;;;5052448;28;20482;-71
2022/04/13 10:54:05;;;;;;;;;;;15.70;99.90;;;;;;5066009;28;19924;-71
2022/04/13 10:56:32;;;;;;;;;;;15.60;99.90;;;;;;5066345;28;20311;-71
2022/04/13 10:59:01;;;;;;;;;;;15.60;99.90;;;;;;5066914;28;19921;-72
2022/04/13 11:01:56;;;;;;;;;;;15.70;99.90;;;;;;5065300;28;19940;-71
2022/04/13 11:04:22;;;;;;;;;;;15.80;99.90;;;;;;5045642;28;19916;-71
2022/04/13 11:06:48;;;;;;;;;;;15.90;99.90;;;;;;5065953;28;19924;-71
2022/04/13 11:09:21;;;;;;;;;;;15.90;99.90;;;;;;5068846;28;19923;-72
2022/04/13 11:11:47;;;;;;;;;;;15.90;99.90;;;;;;5057418;28;19920;-71
2022/04/13 11:14:19;;;;;;;;;;;15.80;99.90;;;;;;5073350;28;19939;-71
2022/04/13 11:16:45;;;;;;;;;;;15.80;99.90;;;;;;5052130;28;19920;-71
2022/04/13 11:19:11;;;;;;;;;;;15.70;99.90;;;;;;5072523;28;19958;-71
2022/04/13 11:21:51;;;;;;;;;;;15.70;99.90;;;;;;5071884;28;20007;-71
2022/04/13 11:24:37;;;;;;;;;;;15.70;99.90;;;;;;5073672;28;20363;-72
2022/04/13 11:27:03;;;;;;;;;;;15.80;99.90;;;;;;5074788;28;20288;-71
2022/04/13 11:29:36;;;;;;;;;;;15.90;99.90;;;;;;5073182;28;19916;-79
2022/04/13 11:32:02;;;;;;;;;;;16.00;99.90;;;;;;5074361;28;19944;-71
2022/04/13 11:34:27;;;;;;;;;;;16.10;99.90;;;;;;5073060;28;20323;-71
2022/04/13 11:36:57;;;;;;;;;;;16.40;99.90;;;;;;5056394;28;19916;-71
2022/04/13 11:39:41;;;;;;;;;;;16.50;99.90;;;;;;5073705;28;20007;-71
2022/04/13 11:42:13;;;;;;;;;;;16.70;99.90;;;;;;5055023;28;20308;-71
2022/04/13 11:44:48;;;;;;;;;;;16.80;99.90;;;;;;5054567;28;19921;-71
2022/04/13 11:47:15;;;;;;;;;;;16.90;99.90;;;;;;5076301;28;19955;-71
2022/04/13 11:49:53;;;;;;;;;;;16.90;99.90;;;;;;5073368;28;19959;-72
2022/04/13 11:52:48;;;;;;;;;;;16.80;99.90;;;;;;5073687;28;19923;-72
2022/04/13 11:55:36;;;;;;;;;;;17.00;99.90;;;;;;5049721;28;19917;-72
2022/04/13 11:58:06;;;;;;;;;;;17.00;99.90;;;;;;5058570;28;19921;-71
2022/04/13 12:00:44;;;;;;;;;;;17.20;99.90;;;;;;5078086;28;19997;-72
2022/04/13 12:03:16;;;;;;;;;;;17.30;99.90;;;;;;5078029;28;19917;-72
2022/04/13 12:05:43;;;;;;;;;;;17.60;99.90;;;;;;5077612;28;19913;-77
2022/04/13 12:08:13;;;;;;;;;;;17.70;99.90;;;;;;5074115;28;19965;-73
2022/04/13 12:10:39;;;;;;;;;;;18.00;99.90;;;;;;5056099;28;19929;-72
2022/04/13 12:13:04;;;;;;;;;;;18.10;99.90;;;;;;5075401;28;19973;-72
2022/04/13 12:15:43;;;;;;;;;;;18.20;99.90;;;;;;5078042;28;20252;-71
2022/04/13 12:18:10;;;;;;;;;;;18.50;99.90;;;;;;5043524;28;19927;-72
2022/04/13 12:20:36;;;;;;;;;;;18.90;99.90;;;;;;5077656;28;19912;-71
2022/04/13 12:23:20;;;;;;;;;;;19.00;99.90;;;;;;5076362;28;20334;-72
2022/04/13 12:25:47;;;;;;;;;;;19.10;99.90;;;;;;5075672;28;19974;-72
2022/04/13 12:28:13;;;;;;;;;;;19.30;99.90;;;;;;5074109;28;20008;-72
2022/04/13 12:30:39;;;;;;;;;;;19.50;99.90;;;;;;5075537;28;20007;-72
2022/04/13 12:33:11;;;;;;;;;;;19.50;99.90;;;;;;5060333;28;20018;-72
2022/04/13 12:35:50;;;;;;;;;;;19.60;99.90;;;;;;5076426;28;19912;-72
2022/04/13 12:38:27;;;;;;;;;;;19.90;99.90;;;;;;5060611;28;19982;-72
2022/04/13 12:41:19;;;;;;;;;;;20.00;99.90;;;;;;5062289;28;19924;-72
2022/04/13 12:43:52;;;;;;;;;;;20.10;99.90;;;;;;5072843;28;19921;-72
2022/04/13 12:46:19;;;;;;;;;;;20.20;99.90;;;;;;5085739;28;19927;-72
2022/04/13 12:48:46;;;;;;;;;;;20.40;99.90;;;;;;5078651;28;19985;-72
2022/04/13 12:51:12;;;;;;;;;;;20.50;99.90;;;;;;5060731;28;19912;-72
2022/04/13 12:53:43;;;;;;;;;;;20.50;99.90;;;;;;5080668;28;19913;-72
2022/04/13 12:56:13;;;;;;;;;;;20.50;99.90;;;;;;5068347;28;19920;-72
2022/04/13 12:58:38;;;;;;;;;;;20.60;99.90;;;;;;5079258;28;19916;-72
2022/04/13 13:01:04;;;;;;;;;;;20.40;99.90;;;;;;5078321;28;19909;-72
2022/04/13 13:03:34;;;;;;;;;;;20.40;99.90;;;;;;5066444;28;19982;-72
2022/04/13 13:06:09;;;;;;;;;;;20.40;99.90;;;;;;5058432;28;19909;-71
2022/04/13 13:08:50;;;;;;;;;;;20.40;99.90;;;;;;5059261;28;19967;-72
2022/04/13 13:11:16;;;;;;;;;;;20.50;99.90;;;;;;5077916;28;19920;-73
2022/04/13 13:13:42;;;;;;;;;;;20.20;99.90;;;;;;5040696;28;19913;-72
2022/04/13 13:16:08;;;;;;;;;;;20.00;99.90;;;;;;5058017;28;19913;-72
2022/04/13 13:18:34;;;;;;;;;;;19.90;99.90;;;;;;5067364;28;19917;-72
2022/04/13 13:21:00;;;;;;;;;;;19.90;99.90;;;;;;5078045;28;19909;-72
2022/04/13 13:23:30;;;;;;;;;;;19.80;99.90;;;;;;5078450;28;20364;-72
2022/04/13 13:25:57;;;;;;;;;;;19.80;99.90;;;;;;5077940;28;19944;-72
2022/04/13 13:28:27;;;;;;;;;;;19.70;99.90;;;;;;5077527;28;19916;-72
2022/04/13 13:30:56;;;;;;;;;;;19.80;99.90;;;;;;5077385;28;20211;-72
2022/04/13 13:33:22;;;;;;;;;;;19.80;99.90;;;;;;5077027;28;19916;-72
2022/04/13 13:35:48;;;;;;;;;;;19.90;99.90;;;;;;5077704;28;19917;-79
2022/04/13 13:38:19;;;;;;;;;;;19.80;99.90;;;;;;5075892;28;20037;-72
2022/04/13 13:40:46;;;;;;;;;;;19.80;99.90;;;;;;5077868;28;19965;-71
2022/04/13 13:43:25;;;;;;;;;;;19.80;99.90;;;;;;5059190;28;19964;-72
2022/04/13 13:45:52;;;;;;;;;;;19.60;99.90;;;;;;5075433;28;19919;-72
2022/04/13 13:48:23;;;;;;;;;;;19.70;99.90;;;;;;5077186;28;19941;-71
2022/04/13 13:50:51;;;;;;;;;;;19.80;99.90;;;;;;5077089;28;20237;-71
2022/04/13 13:53:17;;;;;;;;;;;19.80;99.90;;;;;;5059702;28;19999;-72
2022/04/13 13:55:43;;;;;;;;;;;19.90;99.90;;;;;;5073983;28;20011;-79
2022/04/13 13:58:09;;;;;;;;;;;20.10;99.90;;;;;;5054532;28;19924;-72
2022/04/13 14:00:35;;;;;;;;;;;20.20;99.90;;;;;;5075596;28;19973;-72
2022/04/13 14:03:08;;;;;;;;;;;20.00;99.90;;;;;;5058545;28;19920;-72
2022/04/13 14:05:34;;;;;;;;;;;20.20;99.90;;;;;;5075220;28;19912;-79
2022/04/13 14:08:01;;;;;;;;;;;20.30;99.90;;;;;;5055388;28;19939;-79
2022/04/13 14:10:28;;;;;;;;;;;20.40;99.90;;;;;;5074484;28;20019;-78
2022/04/13 14:12:54;;;;;;;;;;;20.40;99.90;;;;;;5056352;28;19912;-78
2022/04/13 14:15:19;;;;;;;;;;;20.30;99.90;;;;;;5074244;28;19916;-71
2022/04/13 14:17:46;;;;;;;;;;;20.50;99.90;;;;;;5073121;28;20335;-72